Tropical I — CRLU8 — position and weather

sailwx.info

Track history (hours):
 
Tides and Currents Weather Stations Pressure Air Temp Water Temp Dewpoint Dewpoint Depression Visibility Wind Speed Wind Dir Waves Ship Positions

Tropical I

Last reported at 2015-Jul-19 00:29 UTC. Time now 2015-Jul-28 19:49 UTC.
Position N 36°51' W 008°10'.
Warning: this ship's position is 9 days out of date.

Length 11 m.

Type: Pleasure craft. MMSI: 263818940.

Date/timePositionNaut miles runAvg speedWind from/ knotsBaromVisibWave heightAir tempDewpointWater temp
2015-Jul-19 00:29N 36°51' W 008°10'11 3.7
2015-Jul-18 21:25N 36°53' W 008°24'5 5.3
2015-Jul-18 20:33N 36°55' W 008°30'6 5.8
2015-Jul-18 19:32N 36°56' W 008°37'51 4.6
2015-Jul-18 08:28N 37°40' W 009°09'5 5.3
2015-Jul-18 07:33N 37°44' W 009°12'5 5.4
2015-Jul-18 06:33N 37°49' W 009°16'6 5.6
2015-Jul-18 05:34N 37°53' W 009°20'5 4.8
2015-Jul-18 04:31N 37°58' W 009°23'3 3.4
2015-Jul-18 03:31N 38°01' W 009°23'20 4.9
2015-Jul-17 23:28N 38°21' W 009°24'5 5.6
2015-Jul-17 22:33N 38°26' W 009°22'6 6.2
2015-Jul-17 21:33N 38°32' W 009°22'6 6.1
2015-Jul-17 20:32N 38°38' W 009°20'  
2015-Jul-13 18:03N 38°42' W 009°12'0 0.0
2015-Jul-13 17:33N 38°42' W 009°12'0 0.0
2015-Jul-13 16:33N 38°42' W 009°12'0 0.0
2015-Jul-12 11:12N 38°42' W 009°12'  
Track history (hours):
 
Tides and Currents Weather Stations Pressure Air Temp Water Temp Dewpoint Dewpoint Depression Visibility Wind Speed Wind Dir Waves Ship Positions

Tropical I

Last reported at 2015-Jul-19 00:29 UTC. Time now 2015-Jul-28 19:49 UTC.
Position N 36°51' W 008°10'.
Warning: this ship's position is 9 days out of date.

Length 11 m.

Type: Pleasure craft. MMSI: 263818940.

Date/timePositionNaut miles runAvg speedWind from/ knotsBaromVisibWave heightAir tempDewpointWater temp
2015-Jul-19 00:29N 36°51' W 008°10'11 3.7
2015-Jul-18 21:25N 36°53' W 008°24'5 5.3
2015-Jul-18 20:33N 36°55' W 008°30'6 5.8
2015-Jul-18 19:32N 36°56' W 008°37'51 4.6
2015-Jul-18 08:28N 37°40' W 009°09'5 5.3
2015-Jul-18 07:33N 37°44' W 009°12'5 5.4
2015-Jul-18 06:33N 37°49' W 009°16'6 5.6
2015-Jul-18 05:34N 37°53' W 009°20'5 4.8
2015-Jul-18 04:31N 37°58' W 009°23'3 3.4
2015-Jul-18 03:31N 38°01' W 009°23'20 4.9
2015-Jul-17 23:28N 38°21' W 009°24'5 5.6
2015-Jul-17 22:33N 38°26' W 009°22'6 6.2
2015-Jul-17 21:33N 38°32' W 009°22'6 6.1
2015-Jul-17 20:32N 38°38' W 009°20'  
2015-Jul-13 18:03N 38°42' W 009°12'0 0.0
2015-Jul-13 17:33N 38°42' W 009°12'0 0.0
2015-Jul-13 16:33N 38°42' W 009°12'0 0.0
2015-Jul-12 11:12N 38°42' W 009°12'  

Dump ship's entire track history